createdAt,value
2023-01-04T06:50:12.495Z,5.77
2023-01-04T06:55:07.024Z,5.83
2023-01-04T07:00:00.381Z,5.82
2023-01-04T07:04:53.776Z,5.84
2023-01-04T07:09:48.539Z,5.72
2023-01-04T07:14:41.944Z,5.72
2023-01-04T07:19:35.323Z,5.49
2023-01-04T07:24:30.525Z,5.67
2023-01-04T07:29:25.522Z,5.88
2023-01-04T07:45:59.109Z,6.11
2023-01-04T07:56:04.818Z,6.17
2023-01-04T08:01:08.618Z,6.25
2023-01-04T08:06:05.568Z,6.35
2023-01-04T08:11:03.133Z,6.39
2023-01-04T08:15:58.149Z,6.53
2023-01-04T08:20:58.225Z,6.71
2023-01-04T08:25:51.944Z,6.93
2023-01-04T08:42:31.218Z,7.08
2023-01-04T09:02:56.660Z,7.14
2023-01-04T09:07:50.199Z,7.19
2023-01-04T09:18:29.266Z,7.15
2023-01-04T09:28:14.316Z,7.21
2023-01-04T09:55:37.394Z,7.42
2023-01-04T10:00:43.959Z,7.44
2023-01-04T10:05:37.689Z,7.45
2023-01-04T10:10:59.398Z,7.40
2023-01-04T10:16:09.105Z,7.47
2023-01-04T10:21:39.105Z,7.67
2023-01-04T10:45:20.881Z,7.86
2023-01-04T10:50:25.731Z,7.78
2023-01-04T10:55:29.101Z,7.80
2023-01-04T11:00:31.115Z,7.76
2023-01-04T11:05:31.639Z,7.77
2023-01-04T11:10:31.711Z,7.82
2023-01-04T11:15:26.541Z,7.72
2023-01-04T11:20:26.472Z,7.80
2023-01-04T11:25:35.166Z,7.82
2023-01-04T11:30:47.877Z,7.87
2023-01-04T11:35:45.610Z,7.93
2023-01-04T11:40:39.407Z,8.12
2023-01-04T11:45:34.231Z,8.07
2023-01-04T11:50:42.522Z,8.24
2023-01-04T11:55:36.230Z,8.20
2023-01-04T12:00:29.735Z,8.12
2023-01-04T12:05:30.173Z,8.24
2023-01-04T12:10:27.848Z,8.30
2023-01-04T12:15:35.710Z,8.29
2023-01-04T12:20:31.708Z,8.34
2023-01-04T12:25:39.776Z,8.34
2023-01-04T12:30:41.912Z,8.43
2023-01-04T12:36:06.753Z,8.39
2023-01-04T12:41:00.223Z,8.39
2023-01-04T12:47:00.905Z,8.39
2023-01-04T12:53:10.670Z,8.46
2023-01-04T12:57:55.056Z,8.48
2023-01-04T13:03:10.000Z,8.48
2023-01-04T13:08:12.664Z,8.52
2023-01-04T13:13:31.591Z,8.51
2023-01-04T13:18:44.571Z,8.61
2023-01-04T13:23:40.798Z,8.55
2023-01-04T13:28:36.156Z,8.54
2023-01-04T13:33:29.703Z,8.52
2023-01-04T13:38:23.576Z,8.55
2023-01-04T13:43:57.779Z,8.43
2023-01-04T13:48:59.413Z,8.43
2023-01-04T13:53:56.023Z,8.49
2023-01-04T13:58:51.674Z,8.47
2023-01-04T14:03:48.728Z,8.49
2023-01-04T14:08:49.084Z,8.54
2023-01-04T14:13:48.219Z,8.54
2023-01-04T14:18:43.037Z,8.63
2023-01-04T14:23:38.813Z,8.55
2023-01-04T14:33:58.860Z,8.61
2023-01-04T14:39:25.142Z,8.63
2023-01-04T14:44:25.400Z,8.60
2023-01-04T14:49:22.018Z,8.52
2023-01-04T14:54:23.892Z,8.58
2023-01-04T14:59:18.244Z,8.47
2023-01-04T15:04:11.697Z,8.54
2023-01-04T15:09:06.677Z,8.47
2023-01-04T15:14:00.050Z,8.51
2023-01-04T15:18:53.450Z,8.52
2023-01-04T15:23:46.797Z,8.51
2023-01-04T15:28:41.581Z,8.38
2023-01-04T15:33:35.730Z,8.30
2023-01-04T15:38:29.260Z,8.31
2023-01-04T15:43:22.763Z,8.25
2023-01-04T15:48:18.103Z,8.27
2023-01-04T15:53:11.768Z,8.18
2023-01-04T15:58:16.463Z,8.13
2023-01-04T16:03:09.843Z,8.24
2023-01-04T16:08:04.781Z,8.24
2023-01-04T16:12:58.199Z,8.28
2023-01-04T16:17:51.734Z,8.33
2023-01-04T16:22:45.260Z,8.43
2023-01-04T16:27:40.171Z,8.47
2023-01-04T16:32:51.325Z,8.46
2023-01-04T16:37:44.725Z,8.43
2023-01-04T16:42:43.143Z,8.44
2023-01-04T16:47:42.003Z,8.42
2023-01-04T16:52:35.362Z,8.39
2023-01-04T19:07:51.498Z,8.91
2023-01-04T19:12:44.989Z,8.86
2023-01-04T20:18:40.260Z,9.34
2023-01-04T20:23:33.649Z,9.35
2023-01-04T20:28:27.008Z,9.50
2023-01-04T20:33:20.399Z,9.48
2023-01-04T20:38:15.181Z,9.58
2023-01-04T20:43:25.996Z,9.50
2023-01-04T20:48:19.499Z,9.68
2023-01-04T22:09:22.730Z,9.80
2023-01-04T22:14:18.679Z,9.82
2023-01-04T22:19:26.050Z,9.89
2023-01-04T22:44:32.900Z,9.92
2023-01-04T22:49:58.593Z,9.97
2023-01-04T22:54:51.916Z,9.95
2023-01-04T22:59:46.696Z,9.92
2023-01-04T23:04:40.306Z,9.93
2023-01-04T23:09:34.027Z,9.96
2023-01-04T23:14:27.390Z,9.85
2023-01-04T23:19:22.110Z,9.91
2023-01-04T23:24:16.825Z,9.94
2023-01-04T23:29:11.575Z,9.91
2023-01-04T23:34:07.538Z,9.90
2023-01-04T23:39:07.598Z,9.97
2023-01-04T23:44:00.976Z,9.78
2023-01-04T23:48:54.364Z,9.93
2023-01-04T23:53:47.703Z,9.81
2023-01-04T23:58:42.919Z,9.80
